Time;durP1;ratioP1;P1;durP2;ratioP2;P2;SDS_P1;SDS_P2;PMS_P1;PMS_P2;Temp;Humidity;BMP_temperature;BMP_pressure;BME280_temperature;BME280_humidity;BME280_pressure;Samples;Min_cycle;Max_cycle;Signal;HPM_P1;HPM_P2
2022/08/28 00:00:09;;;;;;;5.23;4.70;;;;;;;17.99;100.00;96060.63;5097125;28;20197;-77
2022/08/28 00:02:36;;;;;;;5.27;4.30;;;;;;;17.97;100.00;96054.63;5101295;28;20203;-75
2022/08/28 00:05:05;;;;;;;5.63;4.30;;;;;;;18.02;100.00;96058.16;5099633;27;20290;-75
2022/08/28 00:07:32;;;;;;;5.97;4.37;;;;;;;18.04;100.00;96049.63;5096672;27;20207;-76
2022/08/28 00:10:00;;;;;;;5.07;4.57;;;;;;;18.03;100.00;96059.75;5095524;28;20217;-76
2022/08/28 00:12:28;;;;;;;6.80;4.67;;;;;;;18.04;100.00;96053.19;5100991;27;20348;-76
2022/08/28 00:14:55;;;;;;;5.55;4.43;;;;;;;18.07;100.00;96051.81;5106667;27;20207;-76
2022/08/28 00:17:22;;;;;;;5.13;4.30;;;;;;;18.06;100.00;96052.91;5093169;28;20267;-76
2022/08/28 00:19:49;;;;;;;5.33;4.47;;;;;;;17.92;100.00;96058.22;5098281;28;20200;-76
2022/08/28 00:22:16;;;;;;;4.63;4.10;;;;;;;17.76;100.00;96053.94;5096922;28;20208;-76
2022/08/28 00:24:44;;;;;;;5.50;4.23;;;;;;;17.68;100.00;96051.81;5093308;28;20208;-76
2022/08/28 00:29:58;;;;;;;4.63;4.23;;;;;;;17.50;100.00;96050.50;5092701;28;20321;-76
2022/08/28 00:32:25;;;;;;;5.57;4.60;;;;;;;17.43;100.00;96046.47;5102242;28;20279;-76
2022/08/28 00:34:53;;;;;;;4.77;4.13;;;;;;;17.48;100.00;96054.63;5098635;28;20257;-77
2022/08/28 00:37:20;;;;;;;4.90;4.00;;;;;;;17.49;100.00;96053.53;5097760;28;20253;-77
2022/08/28 00:39:48;;;;;;;5.47;4.70;;;;;;;17.46;100.00;96057.63;5097999;28;20209;-75
2022/08/28 00:42:16;;;;;;;5.10;4.60;;;;;;;17.46;100.00;96054.88;5113848;28;20200;-76
2022/08/28 00:44:44;;;;;;;4.77;4.27;;;;;;;17.44;100.00;96051.63;5119055;28;20221;-75
2022/08/28 00:47:11;;;;;;;5.90;4.57;;;;;;;17.27;100.00;96045.69;5094343;28;20196;-76
2022/08/28 00:49:47;;;;;;;6.30;5.07;;;;;;;17.10;100.00;96051.50;5094452;28;20200;-76
2022/08/28 00:52:14;;;;;;;5.03;4.53;;;;;;;16.94;100.00;96058.09;5098200;28;20238;-76
2022/08/28 00:54:47;;;;;;;5.63;4.57;;;;;;;16.87;100.00;96057.56;5102256;28;20204;-75
2022/08/28 00:57:21;;;;;;;6.57;5.10;;;;;;;16.79;100.00;96047.25;5105679;27;20231;-76
2022/08/28 00:59:48;;;;;;;7.40;5.13;;;;;;;16.84;100.00;96052.69;5105674;28;20204;-75
2022/08/28 01:02:15;;;;;;;6.10;4.47;;;;;;;16.93;100.00;96048.28;5107324;27;20204;-75
2022/08/28 01:04:43;;;;;;;6.17;4.57;;;;;;;17.00;100.00;96044.19;5105751;27;20204;-75
2022/08/28 01:07:13;;;;;;;6.27;4.67;;;;;;;17.08;100.00;96047.44;5100548;27;20197;-77
2022/08/28 01:09:46;;;;;;;5.43;4.13;;;;;;;17.14;100.00;96049.84;5107614;28;20211;-76
2022/08/28 01:12:19;;;;;;;6.17;4.33;;;;;;;17.23;100.00;96050.09;5102075;28;20289;-76
2022/08/28 01:14:49;;;;;;;7.30;4.50;;;;;;;17.19;100.00;96044.38;5105698;28;20261;-76
2022/08/28 01:17:19;;;;;;;5.17;4.30;;;;;;;17.14;100.00;96043.59;5103151;28;20219;-75
2022/08/28 01:19:55;;;;;;;8.00;5.00;;;;;;;17.07;100.00;96049.34;5103881;28;20196;-76
2022/08/28 01:22:29;;;;;;;5.63;4.87;;;;;;;16.90;100.00;96041.50;5104253;27;20204;-75
2022/08/28 01:25:02;;;;;;;6.60;4.50;;;;;;;16.94;100.00;96044.47;5103243;27;20201;-75
2022/08/28 01:27:29;;;;;;;6.93;4.23;;;;;;;16.97;100.00;96046.66;5098140;27;20211;-76
2022/08/28 01:29:56;;;;;;;6.10;4.43;;;;;;;16.99;100.00;96045.28;5103298;27;20236;-75
2022/08/28 01:32:31;;;;;;;5.63;4.70;;;;;;;16.93;100.00;96042.81;5100786;27;20238;-75
2022/08/28 01:34:59;;;;;;;4.47;4.07;;;;;;;16.81;100.00;96048.59;5099667;27;20215;-76
2022/08/28 01:37:27;;;;;;;6.43;4.47;;;;;;;16.74;100.00;96050.81;5106358;27;20196;-75
2022/08/28 01:39:54;;;;;;;5.73;4.73;;;;;;;16.74;100.00;96050.81;5102903;27;20262;-75
2022/08/28 01:42:22;;;;;;;4.73;4.10;;;;;;;16.81;100.00;96054.06;5098844;27;20201;-76
2022/08/28 01:44:51;;;;;;;4.83;4.33;;;;;;;16.83;100.00;96048.34;5104599;28;20274;-75
2022/08/28 01:47:18;;;;;;;4.63;4.10;;;;;;;16.85;100.00;96046.13;5105008;28;20247;-75
2022/08/28 01:49:45;;;;;;;4.67;4.27;;;;;;;16.93;100.00;96048.28;5105793;27;20282;-76
2022/08/28 01:52:12;;;;;;;4.13;3.77;;;;;;;16.93;100.00;96049.09;5102563;27;20227;-75
2022/08/28 01:54:41;;;;;;;4.47;4.03;;;;;;;16.85;100.00;96048.84;5103484;28;20225;-76
2022/08/28 01:57:08;;;;;;;5.33;4.33;;;;;;;16.77;100.00;96047.50;5105789;27;20220;-75
2022/08/28 01:59:36;;;;;;;6.27;4.00;;;;;;;16.71;100.00;96045.91;5103091;28;20228;-75
2022/08/28 02:02:04;;;;;;;5.27;4.23;;;;;;;16.66;100.00;96053.28;5096564;27;20280;-76
2022/08/28 02:04:31;;;;;;;4.77;4.30;;;;;;;16.63;100.00;96058.19;5105565;28;20275;-75
2022/08/28 02:06:59;;;;;;;4.90;4.27;;;;;;;16.66;100.00;96053.28;5097385;27;20250;-76
2022/08/28 02:09:26;;;;;;;5.23;4.03;;;;;;;16.67;100.00;96053.00;5102689;27;20197;-76
2022/08/28 02:11:53;;;;;;;4.63;4.17;;;;;;;16.71;100.00;96045.06;5100852;28;20306;-77
2022/08/28 02:14:21;;;;;;;4.27;3.83;;;;;;;16.66;100.00;96054.09;5102888;27;20228;-75
2022/08/28 02:16:50;;;;;;;4.60;4.07;;;;;;;16.64;100.00;96046.19;5095524;28;20231;-75
2022/08/28 02:19:17;;;;;;;5.23;4.27;;;;;;;16.61;100.00;96049.47;5100997;27;20204;-75
2022/08/28 02:21:44;;;;;;;4.30;3.90;;;;;;;16.60;100.00;96050.50;5099446;27;20204;-75
2022/08/28 02:24:11;;;;;;;4.30;3.90;;;;;;;16.64;100.00;96054.38;5098310;27;20193;-75
2022/08/28 02:26:38;;;;;;;4.40;4.00;;;;;;;16.61;100.00;96049.47;5096300;28;20206;-75
2022/08/28 02:29:06;;;;;;;6.03;4.30;;;;;;;16.67;100.00;96052.19;5100191;28;20232;-75
2022/08/28 02:31:34;;;;;;;5.67;3.93;;;;;;;16.73;100.00;96051.09;5097656;28;20220;-75
2022/08/28 02:34:02;;;;;;;4.20;3.80;;;;;;;16.78;100.00;96056.50;5105527;28;20228;-75
2022/08/28 02:36:29;;;;;;;4.30;3.90;;;;;;;16.73;100.00;96056.53;5103872;28;20200;-76
2022/08/28 02:38:56;;;;;;;5.30;3.63;;;;;;;16.65;100.00;96049.72;5096014;28;20209;-75
2022/08/28 02:41:23;;;;;;;4.73;3.93;;;;;;;16.56;100.00;96054.91;5097700;28;20208;-76
2022/08/28 02:43:51;;;;;;;4.97;3.87;;;;;;;16.51;100.00;96054.88;5105089;28;20204;-75
2022/08/28 02:46:18;;;;;;;5.23;4.10;;;;;;;16.50;100.00;96053.25;5103354;27;20220;-75
2022/08/28 02:48:45;;;;;;;4.73;4.03;;;;;;;16.56;100.00;96059.53;5104976;28;20192;-75
2022/08/28 02:51:14;;;;;;;6.07;4.10;;;;;;;16.58;100.00;96063.63;5103450;28;20204;-75
2022/08/28 02:53:42;;;;;;;4.50;4.10;;;;;;;16.60;100.00;96060.59;5101611;28;20235;-76
2022/08/28 02:56:10;;;;;;;4.23;3.83;;;;;;;16.61;100.00;96060.38;5099111;28;20235;-75
2022/08/28 02:58:39;;;;;;;4.83;4.30;;;;;;;16.59;100.00;96065.22;5100468;27;20196;-75
2022/08/28 03:01:09;;;;;;;5.07;4.00;;;;;;;16.55;100.00;96061.44;5102918;28;20204;-75
2022/08/28 03:03:37;;;;;;;4.50;3.87;;;;;;;16.59;100.00;96057.06;5104902;27;20212;-75
2022/08/28 03:06:04;;;;;;;4.20;3.80;;;;;;;16.61;100.00;96065.00;5101826;28;20207;-75
2022/08/28 03:08:33;;;;;;;4.73;3.93;;;;;;;16.57;100.00;96056.53;5100793;27;20295;-75
2022/08/28 03:11:00;;;;;;;5.47;4.00;;;;;;;16.56;100.00;96046.72;5096508;28;20196;-75
2022/08/28 03:13:28;;;;;;;4.50;4.10;;;;;;;16.59;100.00;96059.78;5089556;28;20236;-75
2022/08/28 03:15:56;;;;;;;4.40;4.00;;;;;;;16.57;100.00;96058.44;5103136;28;20249;-76
2022/08/28 03:18:24;;;;;;;5.73;4.60;;;;;;;16.37;100.00;96056.53;5101903;27;20204;-75
2022/08/28 03:20:52;;;;;;;5.43;4.10;;;;;;;16.24;100.00;96060.66;5098079;28;20252;-76
2022/08/28 03:23:29;;;;;;;4.40;4.00;;;;;;;16.23;100.00;96048.13;5096895;27;20280;-75
2022/08/28 03:26:00;;;;;;;6.57;4.30;;;;;;;16.21;100.00;96049.47;5098506;27;20208;-75
2022/08/28 03:28:30;;;;;;;4.37;3.97;;;;;;;16.11;100.00;96055.75;5100121;27;20293;-75
2022/08/28 03:30:57;;;;;;;4.60;3.93;;;;;;;16.11;100.00;96061.19;5101681;28;20201;-75
2022/08/28 03:33:25;;;;;;;4.43;3.97;;;;;;;16.17;100.00;96062.00;5094202;28;20251;-76
2022/08/28 03:35:54;;;;;;;4.40;4.00;;;;;;;16.17;100.00;96056.53;5104379;28;20287;-75
2022/08/28 03:38:23;;;;;;;4.13;3.73;;;;;;;16.23;100.00;96059.03;5103444;27;20518;-75
2022/08/28 03:40:50;;;;;;;5.10;4.43;;;;;;;16.23;100.00;96069.09;5103749;28;20204;-75
2022/08/28 03:43:21;;;;;;;4.63;3.90;;;;;;;16.25;100.00;96061.44;5097797;28;20208;-75
2022/08/28 03:45:54;;;;;;;4.57;4.17;;;;;;;16.25;100.00;96059.53;5099446;28;20292;-75
2022/08/28 03:48:22;;;;;;;6.77;4.03;;;;;;;16.27;100.00;96064.72;5094025;28;20212;-75
2022/08/28 03:50:51;;;;;;;4.70;3.90;;;;;;;16.27;100.00;96062.00;5105736;27;20207;-75
2022/08/28 03:53:19;;;;;;;4.43;3.70;;;;;;;16.27;100.00;96064.72;5101176;27;20224;-75
2022/08/28 03:55:46;;;;;;;4.10;3.70;;;;;;;16.22;100.00;96062.00;5102694;27;20196;-74
2022/08/28 03:58:14;;;;;;;4.00;3.60;;;;;;;16.19;100.00;96062.53;5097390;27;20199;-75
2022/08/28 04:00:43;;;;;;;4.47;4.00;;;;;;;16.16;100.00;96066.63;5099201;27;20207;-75
2022/08/28 04:03:12;;;;;;;5.07;3.60;;;;;;;16.08;100.00;96058.19;5098893;28;20205;-74
2022/08/28 04:05:39;;;;;;;3.83;3.40;;;;;;;15.99;100.00;96062.56;5101646;27;20207;-75
2022/08/28 04:08:06;;;;;;;4.03;3.60;;;;;;;15.88;100.00;96068.00;5099223;27;20222;-76
2022/08/28 04:10:35;;;;;;;4.30;3.90;;;;;;;15.81;100.00;96067.44;5098213;28;20216;-75
2022/08/28 04:13:03;;;;;;;7.23;4.73;;;;;;;15.75;100.00;96063.03;5114317;27;20242;-75
2022/08/28 04:15:30;;;;;;;4.20;3.80;;;;;;;15.75;100.00;96057.59;5105532;28;20196;-74
2022/08/28 04:17:59;;;;;;;4.70;4.00;;;;;;;15.78;100.00;96057.06;5099012;28;20257;-75
2022/08/28 04:20:26;;;;;;;5.57;4.37;;;;;;;15.72;100.00;96066.31;5104593;28;20292;-75
2022/08/28 04:22:53;;;;;;;4.80;4.30;;;;;;;15.64;100.00;96072.31;5100075;28;20211;-75
2022/08/28 04:25:21;;;;;;;4.20;3.80;;;;;;;15.65;100.00;96073.13;5099963;28;20215;-76
2022/08/28 04:27:48;;;;;;;4.37;3.90;;;;;;;15.66;100.00;96070.09;5099280;28;20224;-74
2022/08/28 04:30:16;;;;;;;4.40;4.00;;;;;;;15.67;100.00;96074.47;5102891;28;20243;-74
2022/08/28 04:32:43;;;;;;;6.60;4.70;;;;;;;15.61;100.00;96072.81;5100769;27;20297;-75
2022/08/28 04:35:12;;;;;;;4.90;3.90;;;;;;;15.62;100.00;96079.09;5100761;28;20211;-74
2022/08/28 04:37:40;;;;;;;4.43;3.80;;;;;;;15.63;100.00;96083.44;5098529;28;20250;-75
2022/08/28 04:40:09;;;;;;;4.87;4.13;;;;;;;15.62;100.00;96087.25;5100975;27;20224;-75
2022/08/28 04:42:37;;;;;;;6.03;4.00;;;;;;;15.51;100.00;96089.91;5104777;28;20192;-75
2022/08/28 04:45:05;;;;;;;5.20;4.30;;;;;;;15.40;100.00;96079.25;5100637;27;20204;-74
2022/08/28 04:47:35;;;;;;;5.13;4.33;;;;;;;15.40;100.00;96090.13;5101629;28;20222;-74
2022/08/28 04:50:03;;;;;;;4.83;4.17;;;;;;;15.42;100.00;96088.78;5098328;28;20208;-75
2022/08/28 04:52:31;;;;;;;4.53;3.70;;;;;;;15.44;100.00;96094.78;5091504;28;20230;-74
2022/08/28 04:54:58;;;;;;;5.90;4.13;;;;;;;15.45;100.00;96091.00;5104947;28;20214;-75
2022/08/28 04:57:25;;;;;;;4.73;3.57;;;;;;;15.40;100.00;96098.28;5101241;28;20219;-74
2022/08/28 04:59:52;;;;;;;7.73;4.37;;;;;;;15.34;100.00;96093.94;5097750;28;20246;-75
2022/08/28 05:02:19;;;;;;;4.50;4.10;;;;;;;15.32;100.00;96099.63;5097862;28;20304;-75
2022/08/28 05:04:46;;;;;;;6.83;4.40;;;;;;;15.30;100.00;96092.84;5100228;28;20204;-74
2022/08/28 05:07:13;;;;;;;5.13;3.80;;;;;;;15.33;100.00;96103.16;5101108;28;20236;-75
2022/08/28 05:09:42;;;;;;;4.13;3.63;;;;;;;15.38;100.00;96106.75;5104844;28;20208;-75
2022/08/28 05:12:14;;;;;;;4.40;4.00;;;;;;;15.36;100.00;96099.94;5100072;28;20219;-74
2022/08/28 05:14:41;;;;;;;5.30;3.90;;;;;;;15.37;100.00;96101.56;5097708;27;20208;-75
2022/08/28 05:17:08;;;;;;;4.27;3.87;;;;;;;15.38;100.00;96111.38;5104390;28;20328;-75
2022/08/28 05:19:35;;;;;;;4.23;3.83;;;;;;;15.42;100.00;96112.44;5094361;28;20200;-75
2022/08/28 05:22:03;;;;;;;5.50;4.17;;;;;;;15.48;100.00;96111.41;5096133;28;20721;-74
2022/08/28 05:24:30;;;;;;;4.03;3.63;;;;;;;15.47;100.00;96112.50;5104038;28;20208;-74
2022/08/28 05:26:58;;;;;;;5.27;4.00;;;;;;;15.43;100.00;96111.38;5102007;28;20284;-74
2022/08/28 05:29:25;;;;;;;5.80;3.90;;;;;;;15.40;100.00;96120.06;5090787;28;20228;-74
2022/08/28 05:31:52;;;;;;;4.30;3.90;;;;;;;15.42;100.00;96124.16;5095288;28;20222;-75
2022/08/28 05:34:20;;;;;;;7.73;4.13;;;;;;;15.50;100.00;96120.94;5100728;28;20297;-75
2022/08/28 05:36:47;;;;;;;4.40;4.00;;;;;;;15.56;100.00;96119.09;5104674;28;20192;-75
2022/08/28 05:39:15;;;;;;;4.67;4.23;;;;;;;15.62;100.00;96114.47;5099372;28;20231;-74
2022/08/28 05:41:44;;;;;;;5.03;4.53;;;;;;;15.71;100.00;96127.28;5102703;27;20208;-75
2022/08/28 05:44:16;;;;;;;4.13;3.73;;;;;;;15.76;100.00;96126.47;5103704;27;20275;-74
2022/08/28 05:46:46;;;;;;;6.47;4.00;;;;;;;15.75;100.00;96127.56;5114654;27;20204;-75
2022/08/28 05:49:16;;;;;;;3.90;3.50;;;;;;;15.68;100.00;96122.38;5096201;28;20195;-74
2022/08/28 05:51:43;;;;;;;4.70;3.90;;;;;;;15.72;100.00;96134.38;5103308;28;20208;-74
2022/08/28 05:54:11;;;;;;;4.17;3.77;;;;;;;15.72;100.00;96137.09;5099587;27;20230;-74
2022/08/28 05:56:40;;;;;;;4.10;3.70;;;;;;;15.76;100.00;96132.75;5104020;28;20263;-74
2022/08/28 05:59:09;;;;;;;4.30;3.90;;;;;;;15.78;100.00;96135.19;5106729;28;20197;-76
2022/08/28 06:01:40;;;;;;;4.40;3.83;;;;;;;15.78;100.00;96141.47;5122714;27;20211;-74
2022/08/28 06:04:09;;;;;;;5.67;3.67;;;;;;;15.77;100.00;96137.09;5101064;27;20196;-76
2022/08/28 06:06:39;;;;;;;5.50;3.70;;;;;;;15.77;100.00;96142.56;5121372;27;20240;-75
2022/08/28 06:09:10;;;;;;;5.30;4.13;;;;;;;15.81;100.00;96146.38;5101117;27;20200;-75
2022/08/28 06:11:38;;;;;;;7.07;3.63;;;;;;;15.76;100.00;96151.81;5105800;28;20222;-74
2022/08/28 06:14:08;;;;;;;4.67;3.80;;;;;;;15.76;100.00;96157.25;5106997;28;20272;-75
2022/08/28 06:16:37;;;;;;;4.73;3.70;;;;;;;15.75;100.00;96161.03;5096250;27;20196;-75
2022/08/28 06:19:06;;;;;;;4.00;3.60;;;;;;;15.78;100.00;96156.97;5101847;28;20192;-75
2022/08/28 06:21:33;;;;;;;3.97;3.47;;;;;;;15.84;100.00;96156.72;5104520;27;20203;-75
2022/08/28 06:24:00;;;;;;;8.00;3.50;;;;;;;15.85;100.00;96163.00;5102420;27;20207;-75
2022/08/28 06:26:28;;;;;;;4.90;3.80;;;;;;;15.89;100.00;96159.47;5105739;28;20228;-74
2022/08/28 06:28:59;;;;;;;4.20;3.80;;;;;;;15.95;100.00;96157.56;5107432;28;20240;-75
2022/08/28 06:31:26;;;;;;;4.20;3.80;;;;;;;15.93;100.00;96161.66;5103021;27;20201;-75
2022/08/28 06:33:55;;;;;;;5.40;4.10;;;;;;;15.91;100.00;96169.28;5105153;27;20207;-74
2022/08/28 06:36:22;;;;;;;6.73;4.00;;;;;;;15.88;100.00;96171.44;5105440;27;20197;-75
2022/08/28 06:38:49;;;;;;;4.47;3.90;;;;;;;15.87;100.00;96169.81;5105177;27;20232;-74
2022/08/28 06:41:18;;;;;;;3.90;3.50;;;;;;;15.92;100.00;96173.63;5100198;27;20196;-75
2022/08/28 06:43:45;;;;;;;4.20;3.80;;;;;;;15.95;100.00;96171.19;5095181;28;20268;-74
2022/08/28 06:46:12;;;;;;;4.37;3.80;;;;;;;15.97;100.00;96184.53;5102345;28;20212;-76
2022/08/28 06:48:40;;;;;;;9.73;6.03;;;;;;;15.98;100.00;96175.28;5101358;27;20283;-75
2022/08/28 06:51:10;;;;;;;4.70;4.03;;;;;;;16.00;100.00;96178.53;5099695;27;20205;-74
2022/08/28 06:53:39;;;;;;;4.20;3.80;;;;;;;15.99;100.00;96175.00;5097705;28;20217;-74
2022/08/28 06:56:10;;;;;;;3.80;3.47;;;;;;;16.02;100.00;96184.53;5101686;27;20221;-75
2022/08/28 06:58:40;;;;;;;5.77;4.40;;;;;;;16.00;100.00;96184.00;5098286;27;20205;-75
2022/08/28 07:01:09;;;;;;;6.03;4.10;;;;;;;15.90;100.00;96182.09;5105679;28;20200;-74
2022/08/28 07:03:37;;;;;;;5.77;3.70;;;;;;;15.85;100.00;96182.03;5117172;27;20254;-74
2022/08/28 07:06:06;;;;;;;3.83;3.50;;;;;;;15.87;100.00;96180.69;5104203;27;20228;-75
2022/08/28 07:08:36;;;;;;;4.97;3.83;;;;;;;15.87;100.00;96194.31;5093637;28;20212;-74
2022/08/28 07:11:10;;;;;;;4.67;3.90;;;;;;;15.83;100.00;96195.91;5098716;27;20206;-75
2022/08/28 07:13:37;;;;;;;6.60;3.90;;;;;;;15.85;100.00;96188.31;5110056;27;20228;-75
2022/08/28 07:16:05;;;;;;;4.73;3.87;;;;;;;15.86;100.00;96189.94;5120680;27;20200;-75
2022/08/28 07:18:32;;;;;;;4.33;3.90;;;;;;;15.96;100.00;96199.25;5120241;27;20246;-74
2022/08/28 07:21:01;;;;;;;5.33;3.80;;;;;;;16.02;100.00;96187.25;5101470;27;20227;-76
2022/08/28 07:23:29;;;;;;;5.10;4.60;;;;;;;16.07;100.00;96195.47;5104111;28;20240;-75
2022/08/28 07:25:58;;;;;;;3.90;3.50;;;;;;;16.03;100.00;96188.91;5104046;28;20208;-76
2022/08/28 07:28:25;;;;;;;5.37;4.10;;;;;;;16.01;100.00;96191.91;5100606;27;20262;-75
2022/08/28 07:31:00;;;;;;;4.30;3.87;;;;;;;15.95;100.00;96192.97;5103627;28;20204;-75
2022/08/28 07:33:28;;;;;;;5.20;4.17;;;;;;;16.04;100.00;96196.00;5096176;28;20287;-75
2022/08/28 07:35:56;;;;;;;5.63;4.50;;;;;;;16.13;100.00;96194.38;5104621;28;20203;-75
2022/08/28 07:38:25;;;;;;;4.57;3.83;;;;;;;16.18;100.00;96191.66;5103077;27;20210;-75
2022/08/28 07:40:52;;;;;;;4.37;3.97;;;;;;;16.34;100.00;96187.88;5105005;27;20231;-75
2022/08/28 07:46:10;;;;;;;5.17;4.03;;;;;;;16.75;100.00;96199.69;5104537;28;20203;-75
2022/08/28 07:48:38;;;;;;;4.00;3.60;;;;;;;16.93;100.00;96195.56;5096663;27;20253;-76
2022/08/28 07:51:08;;;;;;;4.80;4.03;;;;;;;17.06;100.00;96192.28;5098128;28;20211;-75
2022/08/28 07:53:36;;;;;;;4.57;4.00;;;;;;;17.11;100.00;96195.00;5098430;28;20212;-75
2022/08/28 07:56:03;;;;;;;5.50;4.03;;;;;;;17.15;100.00;96192.53;5099783;28;20216;-75
2022/08/28 07:58:32;;;;;;;4.33;3.93;;;;;;;17.30;100.00;96190.59;5103639;27;20287;-75
2022/08/28 08:01:01;;;;;;;4.87;4.37;;;;;;;17.74;100.00;96198.97;5100605;28;20253;-75
2022/08/28 08:03:30;;;;;;;5.60;4.20;;;;;;;18.13;100.00;96206.41;5101401;28;20303;-75
2022/08/28 08:06:00;;;;;;;4.50;4.10;;;;;;;18.46;100.00;96204.84;5092472;28;20196;-75
2022/08/28 08:08:28;;;;;;;4.43;3.53;;;;;;;18.84;100.00;96212.28;5098225;28;20204;-75
2022/08/28 08:11:00;;;;;;;3.97;3.60;;;;;;;19.26;100.00;96205.34;5099502;28;20227;-75
2022/08/28 08:13:29;;;;;;;4.63;3.73;;;;;;;19.62;100.00;96200.34;5092781;28;20225;-75
2022/08/28 08:16:02;;;;;;;3.97;3.60;;;;;;;19.90;100.00;96204.94;5104029;27;20200;-75
2022/08/28 08:18:29;;;;;;;4.75;4.30;;;;;;;20.00;100.00;96206.72;5098494;28;20238;-75
2022/08/28 08:20:57;;;;;;;4.03;3.45;;;;;;;20.06;100.00;96193.78;5097215;28;20200;-76
2022/08/28 08:23:24;;;;;;;6.07;4.05;;;;;;;20.24;100.00;96199.28;5098045;28;20232;-76
2022/08/28 08:25:56;;;;;;;3.83;3.53;;;;;;;20.48;100.00;96209.41;5119289;27;20213;-76
2022/08/28 08:28:24;;;;;;;4.45;4.03;;;;;;;20.55;100.00;96194.22;5102424;28;20247;-76
2022/08/28 08:30:51;;;;;;;6.03;4.70;;;;;;;20.76;100.00;96208.41;5101948;28;20207;-75
2022/08/28 08:33:19;;;;;;;4.63;4.22;;;;;;;20.90;100.00;96203.81;5103899;28;20220;-76
2022/08/28 08:35:46;;;;;;;4.85;4.45;;;;;;;21.01;100.00;96198.97;5094263;28;20212;-76
2022/08/28 08:38:13;;;;;;;5.45;4.95;;;;;;;21.06;100.00;96196.13;5103039;28;20199;-75
2022/08/28 08:40:41;;;;;;;4.78;4.38;;;;;;;20.87;100.00;96198.91;5103592;28;20200;-76
2022/08/28 08:43:09;;;;;;;4.63;4.22;;;;;;;21.11;100.00;96204.28;5092475;27;20200;-76
2022/08/28 08:45:38;;;;;;;6.05;4.40;;;;;;;21.47;100.00;96204.50;5098188;28;20205;-76
2022/08/28 08:48:05;;;;;;;6.80;4.60;;;;;;;21.82;100.00;96201.06;5105901;28;20204;-76
2022/08/28 08:50:35;;;;;;;5.38;4.13;;;;;;;22.02;100.00;96201.81;5097883;27;20296;-75
2022/08/28 08:53:19;;;;;;;5.30;4.80;;;;;;;22.20;99.92;96198.94;5099084;28;20196;-76
2022/08/28 08:55:49;;;;;;;5.35;4.85;;;;;;;22.36;97.67;96196.69;5100241;28;20203;-76
2022/08/28 08:58:24;;;;;;;6.32;4.80;;;;;;;22.46;97.41;96188.19;5106315;28;20227;-77
2022/08/28 09:00:59;;;;;;;5.80;5.20;;;;;;;22.39;98.26;96185.03;5102821;28;20211;-76
2022/08/28 09:03:42;;;;;;;6.38;5.15;;;;;;;22.68;96.76;96192.91;5104990;28;20206;-76
2022/08/28 09:06:21;;;;;;;5.32;4.82;;;;;;;22.74;93.71;96194.44;5100739;27;20211;-76
2022/08/28 09:08:55;;;;;;;6.93;5.50;;;;;;;22.86;94.85;96193.91;5098765;28;20219;-76
2022/08/28 09:11:34;;;;;;;5.53;5.00;;;;;;;23.04;92.35;96190.16;5102464;28;20806;-76
2022/08/28 09:14:08;;;;;;;5.93;5.32;;;;;;;23.11;95.46;96184.19;5092960;28;20281;-76
2022/08/28 09:16:39;;;;;;;5.90;5.30;;;;;;;23.32;92.43;96190.78;5100120;28;20273;-76
2022/08/28 09:19:09;;;;;;;5.40;4.95;;;;;;;23.36;93.30;96187.13;5106666;28;20228;-76
2022/08/28 09:21:41;;;;;;;6.25;4.97;;;;;;;23.33;92.00;96189.66;5110389;28;20204;-76
2022/08/28 09:24:16;;;;;;;4.93;4.47;;;;;;;23.32;91.39;96191.63;5118843;27;20299;-76
2022/08/28 09:26:50;;;;;;;6.30;4.88;;;;;;;23.27;91.91;96188.19;5106293;28;20210;-76
2022/08/28 09:29:18;;;;;;;7.18;4.68;;;;;;;23.24;92.04;96184.13;5101846;28;20227;-76
2022/08/28 09:31:45;;;;;;;5.53;4.97;;;;;;;23.27;91.65;96180.75;5108410;28;20224;-77
2022/08/28 09:34:29;;;;;;;5.60;5.00;;;;;;;23.25;89.78;96182.16;5108792;28;20227;-77
2022/08/28 09:36:59;;;;;;;4.85;4.35;;;;;;;23.27;91.61;96177.97;5105696;28;20199;-77
2022/08/28 09:39:28;;;;;;;5.80;4.90;;;;;;;23.28;90.54;96179.63;5105561;28;20215;-77
2022/08/28 09:45:03;;;;;;;4.90;4.32;;;;;;;23.45;92.35;96178.09;5108682;28;20210;-76
2022/08/28 09:47:35;;;;;;;5.88;4.85;;;;;;;23.45;89.45;96172.56;5104442;27;20208;-76
2022/08/28 09:50:20;;;;;;;5.68;4.78;;;;;;;23.36;90.63;96170.59;5097381;28;20273;-76
2022/08/28 09:52:49;;;;;;;5.30;4.80;;;;;;;23.51;90.01;96169.38;5106103;28;20208;-76
2022/08/28 09:55:24;;;;;;;5.10;4.60;;;;;;;23.74;89.56;96167.38;5105894;28;20229;-76
2022/08/28 09:57:53;;;;;;;5.50;5.00;;;;;;;23.82;88.60;96161.06;5103230;28;20216;-77
2022/08/28 10:00:21;;;;;;;5.60;4.50;;;;;;;23.95;90.77;96159.34;5107147;28;20208;-76
2022/08/28 10:02:53;;;;;;;5.68;4.78;;;;;;;24.08;88.33;96167.47;5108657;28;20274;-76
2022/08/28 10:05:34;;;;;;;5.30;4.80;;;;;;;24.10;87.97;96167.97;5107138;28;20211;-76
2022/08/28 10:08:16;;;;;;;6.63;5.03;;;;;;;24.35;88.15;96157.34;5108713;28;20205;-76
2022/08/28 10:10:50;;;;;;;6.45;4.97;;;;;;;24.43;86.51;96159.28;5095664;28;20220;-76
2022/08/28 10:13:22;;;;;;;6.10;5.25;;;;;;;24.38;86.99;96156.69;5110185;28;20200;-76
2022/08/28 10:16:10;;;;;;;6.05;5.05;;;;;;;24.16;87.56;96149.31;5097749;28;20216;-76
2022/08/28 10:18:45;;;;;;;5.72;5.18;;;;;;;24.31;87.58;96156.38;5104832;28;20204;-76
2022/08/28 10:21:24;;;;;;;5.47;4.97;;;;;;;24.52;86.63;96149.88;5104285;28;20199;-76
2022/08/28 10:24:30;;;;;;;5.18;4.68;;;;;;;24.62;84.98;96157.03;5098438;28;20278;-76
2022/08/28 10:27:06;;;;;;;5.35;4.85;;;;;;;24.59;86.84;96157.66;5096324;28;20211;-76
2022/08/28 10:29:48;;;;;;;6.03;4.65;;;;;;;24.73;82.47;96158.34;5107738;28;20351;-76
2022/08/28 10:32:37;;;;;;;5.95;4.80;;;;;;;24.74;84.40;96154.44;5090860;28;20209;-76
2022/08/28 10:35:11;;;;;;;6.07;5.40;;;;;;;24.91;83.02;96142.59;5106907;28;20224;-76
2022/08/28 10:37:51;;;;;;;5.47;4.68;;;;;;;24.88;82.95;96145.97;5104238;28;20406;-77
2022/08/28 10:40:26;;;;;;;5.32;4.60;;;;;;;24.99;82.17;96144.53;5108534;28;20345;-76
2022/08/28 10:43:01;;;;;;;5.28;4.78;;;;;;;24.91;80.40;96153.66;5105941;28;20196;-76
2022/08/28 10:45:32;;;;;;;5.70;4.47;;;;;;;24.94;82.41;96157.69;5105233;28;20208;-76
2022/08/28 10:48:04;;;;;;;5.63;4.47;;;;;;;25.08;81.67;96159.16;5106742;28;20196;-76
2022/08/28 10:50:39;;;;;;;5.45;4.95;;;;;;;25.11;80.48;96154.91;5107091;28;20203;-76
2022/08/28 10:53:11;;;;;;;5.70;5.20;;;;;;;24.98;82.63;96142.09;5090962;28;20207;-76
2022/08/28 10:55:48;;;;;;;4.40;4.00;;;;;;;25.18;82.10;96149.69;5095358;28;20217;-76
2022/08/28 10:58:16;;;;;;;4.72;4.32;;;;;;;25.15;81.57;96155.88;5105022;28;20212;-77
2022/08/28 11:00:43;;;;;;;5.05;4.55;;;;;;;25.18;79.79;96144.16;5098526;27;20213;-76
2022/08/28 11:03:15;;;;;;;4.55;4.15;;;;;;;25.00;81.76;96156.41;5106562;27;20204;-76
2022/08/28 11:05:48;;;;;;;5.95;4.68;;;;;;;25.10;81.33;96162.38;5104467;28;20268;-77
2022/08/28 11:08:24;;;;;;;4.45;4.05;;;;;;;25.13;80.20;96144.34;5091249;28;20254;-77
2022/08/28 11:10:55;;;;;;;6.32;4.45;;;;;;;25.52;82.83;96144.06;5106135;28;20210;-76
2022/08/28 11:13:44;;;;;;;4.70;4.30;;;;;;;25.73;78.80;96146.97;5103737;28;20213;-77
2022/08/28 11:16:18;;;;;;;5.13;4.63;;;;;;;25.82;79.54;96133.09;5104356;28;20307;-76
2022/08/28 11:19:24;;;;;;;4.75;4.25;;;;;;;25.84;78.83;96139.09;5104672;28;20214;-76
2022/08/28 11:21:54;;;;;;;4.70;4.30;;;;;;;25.88;78.80;96137.28;5025326;28;20202;-76
2022/08/28 11:24:32;;;;;;;4.95;4.55;;;;;;;25.98;78.33;96132.19;5084095;28;20504;-76
2022/08/28 11:27:16;;;;;;;5.50;5.00;;;;;;;25.71;77.94;96143.69;5102799;28;20200;-77
2022/08/28 11:30:03;;;;;;;5.65;4.97;;;;;;;25.80;78.96;96135.38;5099384;28;20260;-76
2022/08/28 11:32:54;;;;;;;6.63;5.20;;;;;;;25.83;78.54;96134.72;5103810;28;20196;-76
2022/08/28 11:35:49;;;;;;;5.40;4.90;;;;;;;25.82;77.37;96141.38;5103532;28;20292;-76
2022/08/28 11:38:54;;;;;;;5.53;5.03;;;;;;;25.92;76.96;96139.06;5098625;28;20200;-76
2022/08/28 11:41:25;;;;;;;5.70;5.18;;;;;;;25.98;78.15;96153.50;5094070;28;20195;-76
2022/08/28 11:44:39;;;;;;;5.25;4.80;;;;;;;25.90;77.65;96144.09;5119212;27;20201;-77
2022/08/28 11:47:46;;;;;;;4.78;4.28;;;;;;;25.83;78.44;96156.84;5105057;27;20212;-76
2022/08/28 11:50:21;;;;;;;5.68;5.18;;;;;;;25.87;77.98;96152.25;5105989;28;20250;-77